sensor_id;sensor_type;location;lat;lon;timestamp;P1;durP1;ratioP1;P2;durP2;ratioP2
44438;SDS011;30145;48.874;10.186;2022-08-03T00:01:25;2.10;;;1.90;;
44438;SDS011;30145;48.874;10.186;2022-08-03T00:03:56;2.93;;;2.00;;
44438;SDS011;30145;48.874;10.186;2022-08-03T00:06:23;1.87;;;1.70;;
44438;SDS011;30145;48.874;10.186;2022-08-03T00:08:51;2.10;;;1.90;;
44438;SDS011;30145;48.874;10.186;2022-08-03T00:11:18;1.77;;;1.63;;
44438;SDS011;30145;48.874;10.186;2022-08-03T00:13:45;2.10;;;1.90;;
44438;SDS011;30145;48.874;10.186;2022-08-03T00:16:12;3.07;;;2.10;;
44438;SDS011;30145;48.874;10.186;2022-08-03T00:18:40;2.97;;;1.80;;
44438;SDS011;30145;48.874;10.186;2022-08-03T00:21:07;2.43;;;2.00;;
44438;SDS011;30145;48.874;10.186;2022-08-03T00:23:34;1.90;;;1.80;;
44438;SDS011;30145;48.874;10.186;2022-08-03T00:26:01;4.43;;;2.00;;
44438;SDS011;30145;48.874;10.186;2022-08-03T00:28:28;2.73;;;1.97;;
44438;SDS011;30145;48.874;10.186;2022-08-03T00:30:55;2.10;;;1.90;;
44438;SDS011;30145;48.874;10.186;2022-08-03T00:33:22;2.57;;;1.80;;
44438;SDS011;30145;48.874;10.186;2022-08-03T00:35:50;1.90;;;1.80;;
44438;SDS011;30145;48.874;10.186;2022-08-03T00:38:18;2.00;;;1.80;;
44438;SDS011;30145;48.874;10.186;2022-08-03T00:40:45;1.70;;;1.60;;
44438;SDS011;30145;48.874;10.186;2022-08-03T00:43:12;2.40;;;2.20;;
44438;SDS011;30145;48.874;10.186;2022-08-03T00:45:40;2.47;;;1.80;;
44438;SDS011;30145;48.874;10.186;2022-08-03T00:48:08;2.67;;;1.87;;
44438;SDS011;30145;48.874;10.186;2022-08-03T00:50:40;3.53;;;2.03;;
44438;SDS011;30145;48.874;10.186;2022-08-03T00:53:09;4.43;;;2.30;;
44438;SDS011;30145;48.874;10.186;2022-08-03T00:55:38;2.40;;;2.00;;
44438;SDS011;30145;48.874;10.186;2022-08-03T00:58:06;3.13;;;2.40;;
44438;SDS011;30145;48.874;10.186;2022-08-03T01:00:34;2.10;;;1.90;;
44438;SDS011;30145;48.874;10.186;2022-08-03T01:03:04;2.30;;;2.10;;
44438;SDS011;30145;48.874;10.186;2022-08-03T01:05:35;2.00;;;1.80;;
44438;SDS011;30145;48.874;10.186;2022-08-03T01:08:31;1.77;;;1.53;;
44438;SDS011;30145;48.874;10.186;2022-08-03T01:13:43;2.20;;;2.00;;
44438;SDS011;30145;48.874;10.186;2022-08-03T01:16:17;3.63;;;1.90;;
44438;SDS011;30145;48.874;10.186;2022-08-03T01:21:51;2.23;;;1.80;;
44438;SDS011;30145;48.874;10.186;2022-08-03T01:24:43;4.57;;;1.80;;
44438;SDS011;30145;48.874;10.186;2022-08-03T01:27:27;1.80;;;1.70;;
44438;SDS011;30145;48.874;10.186;2022-08-03T01:30:06;3.20;;;1.97;;
44438;SDS011;30145;48.874;10.186;2022-08-03T01:32:51;2.13;;;1.80;;
44438;SDS011;30145;48.874;10.186;2022-08-03T01:35:42;2.20;;;1.90;;
44438;SDS011;30145;48.874;10.186;2022-08-03T01:38:12;2.03;;;1.90;;
44438;SDS011;30145;48.874;10.186;2022-08-03T01:41:06;1.67;;;1.47;;
44438;SDS011;30145;48.874;10.186;2022-08-03T01:43:34;2.10;;;1.90;;
44438;SDS011;30145;48.874;10.186;2022-08-03T01:46:03;2.30;;;1.70;;
44438;SDS011;30145;48.874;10.186;2022-08-03T01:48:30;2.33;;;1.80;;
44438;SDS011;30145;48.874;10.186;2022-08-03T01:50:57;1.90;;;1.80;;
44438;SDS011;30145;48.874;10.186;2022-08-03T01:53:25;1.80;;;1.70;;
44438;SDS011;30145;48.874;10.186;2022-08-03T01:55:53;2.07;;;1.87;;
44438;SDS011;30145;48.874;10.186;2022-08-03T01:58:21;2.50;;;1.90;;
44438;SDS011;30145;48.874;10.186;2022-08-03T02:00:49;2.13;;;1.90;;
44438;SDS011;30145;48.874;10.186;2022-08-03T02:03:17;2.00;;;1.80;;
44438;SDS011;30145;48.874;10.186;2022-08-03T02:05:45;2.73;;;2.03;;
44438;SDS011;30145;48.874;10.186;2022-08-03T02:08:13;2.03;;;1.90;;
44438;SDS011;30145;48.874;10.186;2022-08-03T02:10:42;1.70;;;1.60;;
44438;SDS011;30145;48.874;10.186;2022-08-03T02:13:12;3.00;;;1.97;;
44438;SDS011;30145;48.874;10.186;2022-08-03T02:15:40;2.77;;;1.77;;
44438;SDS011;30145;48.874;10.186;2022-08-03T02:18:08;2.43;;;1.83;;
44438;SDS011;30145;48.874;10.186;2022-08-03T02:20:37;2.37;;;1.97;;
44438;SDS011;30145;48.874;10.186;2022-08-03T02:23:04;2.07;;;1.87;;
44438;SDS011;30145;48.874;10.186;2022-08-03T02:25:33;2.37;;;2.17;;
44438;SDS011;30145;48.874;10.186;2022-08-03T02:28:09;2.27;;;1.83;;
44438;SDS011;30145;48.874;10.186;2022-08-03T02:30:38;1.60;;;1.50;;
44438;SDS011;30145;48.874;10.186;2022-08-03T02:33:08;2.20;;;2.00;;
44438;SDS011;30145;48.874;10.186;2022-08-03T02:35:37;2.30;;;2.10;;
44438;SDS011;30145;48.874;10.186;2022-08-03T02:38:06;2.03;;;1.90;;
44438;SDS011;30145;48.874;10.186;2022-08-03T02:40:33;3.20;;;2.03;;
44438;SDS011;30145;48.874;10.186;2022-08-03T02:43:02;2.10;;;1.90;;
44438;SDS011;30145;48.874;10.186;2022-08-03T02:45:34;2.10;;;1.87;;
44438;SDS011;30145;48.874;10.186;2022-08-03T02:48:02;2.10;;;1.90;;
44438;SDS011;30145;48.874;10.186;2022-08-03T02:50:31;2.87;;;2.10;;
44438;SDS011;30145;48.874;10.186;2022-08-03T02:52:59;3.73;;;2.03;;
44438;SDS011;30145;48.874;10.186;2022-08-03T02:55:27;2.03;;;1.93;;
44438;SDS011;30145;48.874;10.186;2022-08-03T02:57:55;2.33;;;2.13;;
44438;SDS011;30145;48.874;10.186;2022-08-03T03:00:23;2.23;;;1.80;;
44438;SDS011;30145;48.874;10.186;2022-08-03T03:02:50;2.30;;;2.10;;
44438;SDS011;30145;48.874;10.186;2022-08-03T03:05:17;2.40;;;2.20;;
44438;SDS011;30145;48.874;10.186;2022-08-03T03:07:45;2.30;;;2.10;;
44438;SDS011;30145;48.874;10.186;2022-08-03T03:10:12;3.37;;;2.07;;
44438;SDS011;30145;48.874;10.186;2022-08-03T03:12:39;2.30;;;2.10;;
44438;SDS011;30145;48.874;10.186;2022-08-03T03:15:06;2.63;;;2.00;;
44438;SDS011;30145;48.874;10.186;2022-08-03T03:17:33;3.23;;;2.00;;
44438;SDS011;30145;48.874;10.186;2022-08-03T03:20:03;3.13;;;2.80;;
44438;SDS011;30145;48.874;10.186;2022-08-03T03:22:32;2.30;;;2.10;;
44438;SDS011;30145;48.874;10.186;2022-08-03T03:25:00;3.20;;;2.43;;
44438;SDS011;30145;48.874;10.186;2022-08-03T03:27:27;2.37;;;2.17;;
44438;SDS011;30145;48.874;10.186;2022-08-03T03:29:55;2.27;;;1.90;;
44438;SDS011;30145;48.874;10.186;2022-08-03T03:32:24;3.53;;;2.40;;
44438;SDS011;30145;48.874;10.186;2022-08-03T03:34:53;2.27;;;2.07;;
44438;SDS011;30145;48.874;10.186;2022-08-03T03:37:21;3.97;;;2.33;;
44438;SDS011;30145;48.874;10.186;2022-08-03T03:39:48;2.23;;;2.03;;
44438;SDS011;30145;48.874;10.186;2022-08-03T03:42:15;3.63;;;2.23;;
44438;SDS011;30145;48.874;10.186;2022-08-03T03:44:42;2.20;;;2.00;;
44438;SDS011;30145;48.874;10.186;2022-08-03T03:47:09;2.50;;;2.30;;
44438;SDS011;30145;48.874;10.186;2022-08-03T03:49:36;3.27;;;1.93;;
44438;SDS011;30145;48.874;10.186;2022-08-03T03:52:03;2.87;;;2.40;;
44438;SDS011;30145;48.874;10.186;2022-08-03T03:54:40;2.57;;;2.37;;
44438;SDS011;30145;48.874;10.186;2022-08-03T03:57:08;3.50;;;2.27;;
44438;SDS011;30145;48.874;10.186;2022-08-03T03:59:40;3.17;;;2.23;;
44438;SDS011;30145;48.874;10.186;2022-08-03T04:02:08;4.57;;;2.70;;
44438;SDS011;30145;48.874;10.186;2022-08-03T04:04:36;3.10;;;2.30;;
44438;SDS011;30145;48.874;10.186;2022-08-03T04:07:23;3.07;;;2.77;;
44438;SDS011;30145;48.874;10.186;2022-08-03T04:10:12;3.30;;;2.80;;
44438;SDS011;30145;48.874;10.186;2022-08-03T04:12:59;3.10;;;2.80;;
44438;SDS011;30145;48.874;10.186;2022-08-03T04:15:28;5.33;;;3.10;;
44438;SDS011;30145;48.874;10.186;2022-08-03T04:17:57;4.00;;;3.07;;
44438;SDS011;30145;48.874;10.186;2022-08-03T04:20:29;3.00;;;2.70;;
44438;SDS011;30145;48.874;10.186;2022-08-03T04:22:58;3.50;;;2.50;;
44438;SDS011;30145;48.874;10.186;2022-08-03T04:25:27;2.87;;;2.60;;
44438;SDS011;30145;48.874;10.186;2022-08-03T04:27:56;3.40;;;2.40;;
44438;SDS011;30145;48.874;10.186;2022-08-03T04:30:26;3.50;;;2.90;;
44438;SDS011;30145;48.874;10.186;2022-08-03T04:32:55;2.43;;;2.20;;
44438;SDS011;30145;48.874;10.186;2022-08-03T04:35:23;3.20;;;2.63;;
44438;SDS011;30145;48.874;10.186;2022-08-03T04:37:51;2.40;;;2.20;;
44438;SDS011;30145;48.874;10.186;2022-08-03T04:40:21;2.47;;;2.10;;
44438;SDS011;30145;48.874;10.186;2022-08-03T04:42:53;2.70;;;2.40;;
44438;SDS011;30145;48.874;10.186;2022-08-03T04:45:21;3.93;;;2.47;;
44438;SDS011;30145;48.874;10.186;2022-08-03T04:47:48;2.50;;;2.30;;
44438;SDS011;30145;48.874;10.186;2022-08-03T04:50:16;3.73;;;2.73;;
44438;SDS011;30145;48.874;10.186;2022-08-03T04:52:46;4.03;;;2.60;;
44438;SDS011;30145;48.874;10.186;2022-08-03T04:55:26;3.47;;;2.50;;
44438;SDS011;30145;48.874;10.186;2022-08-03T04:57:54;4.80;;;2.60;;
44438;SDS011;30145;48.874;10.186;2022-08-03T05:00:22;2.80;;;2.60;;
44438;SDS011;30145;48.874;10.186;2022-08-03T05:02:50;3.20;;;2.63;;
44438;SDS011;30145;48.874;10.186;2022-08-03T05:05:17;4.53;;;3.87;;
44438;SDS011;30145;48.874;10.186;2022-08-03T05:07:44;8.40;;;5.93;;
44438;SDS011;30145;48.874;10.186;2022-08-03T05:10:12;8.10;;;6.10;;
44438;SDS011;30145;48.874;10.186;2022-08-03T05:12:39;5.43;;;3.87;;
44438;SDS011;30145;48.874;10.186;2022-08-03T05:15:06;5.57;;;2.90;;
44438;SDS011;30145;48.874;10.186;2022-08-03T05:17:34;6.07;;;2.60;;
44438;SDS011;30145;48.874;10.186;2022-08-03T05:20:01;2.80;;;2.53;;
44438;SDS011;30145;48.874;10.186;2022-08-03T05:22:30;3.00;;;2.23;;
44438;SDS011;30145;48.874;10.186;2022-08-03T05:24:57;4.67;;;2.70;;
44438;SDS011;30145;48.874;10.186;2022-08-03T05:27:24;3.60;;;2.40;;
44438;SDS011;30145;48.874;10.186;2022-08-03T05:29:51;5.40;;;2.53;;
44438;SDS011;30145;48.874;10.186;2022-08-03T05:32:18;2.53;;;2.33;;
44438;SDS011;30145;48.874;10.186;2022-08-03T05:34:45;2.10;;;1.90;;
44438;SDS011;30145;48.874;10.186;2022-08-03T05:37:12;3.80;;;2.40;;
44438;SDS011;30145;48.874;10.186;2022-08-03T05:39:39;2.20;;;2.00;;
44438;SDS011;30145;48.874;10.186;2022-08-03T05:42:06;3.20;;;2.13;;
44438;SDS011;30145;48.874;10.186;2022-08-03T05:44:33;3.00;;;2.27;;
44438;SDS011;30145;48.874;10.186;2022-08-03T05:47:04;2.57;;;2.37;;
44438;SDS011;30145;48.874;10.186;2022-08-03T05:49:31;2.87;;;2.57;;
44438;SDS011;30145;48.874;10.186;2022-08-03T05:51:58;3.67;;;2.73;;
44438;SDS011;30145;48.874;10.186;2022-08-03T05:54:25;3.63;;;2.93;;
44438;SDS011;30145;48.874;10.186;2022-08-03T05:56:52;4.37;;;2.90;;
44438;SDS011;30145;48.874;10.186;2022-08-03T05:59:19;2.83;;;2.63;;
44438;SDS011;30145;48.874;10.186;2022-08-03T06:02:02;3.10;;;2.80;;
44438;SDS011;30145;48.874;10.186;2022-08-03T06:04:29;3.20;;;2.90;;
44438;SDS011;30145;48.874;10.186;2022-08-03T06:06:56;3.33;;;3.03;;
44438;SDS011;30145;48.874;10.186;2022-08-03T06:09:23;4.43;;;3.00;;
44438;SDS011;30145;48.874;10.186;2022-08-03T06:11:50;4.03;;;2.80;;
44438;SDS011;30145;48.874;10.186;2022-08-03T06:14:17;3.60;;;2.17;;
44438;SDS011;30145;48.874;10.186;2022-08-03T06:16:44;2.27;;;2.07;;
44438;SDS011;30145;48.874;10.186;2022-08-03T06:19:11;2.47;;;2.00;;
44438;SDS011;30145;48.874;10.186;2022-08-03T06:21:38;2.30;;;2.00;;
44438;SDS011;30145;48.874;10.186;2022-08-03T06:24:05;2.47;;;2.20;;
44438;SDS011;30145;48.874;10.186;2022-08-03T06:26:32;4.63;;;2.10;;
44438;SDS011;30145;48.874;10.186;2022-08-03T06:28:59;2.87;;;2.00;;
44438;SDS011;30145;48.874;10.186;2022-08-03T06:31:26;2.30;;;2.10;;
44438;SDS011;30145;48.874;10.186;2022-08-03T06:33:55;3.17;;;2.50;;
44438;SDS011;30145;48.874;10.186;2022-08-03T06:36:22;4.47;;;2.37;;
44438;SDS011;30145;48.874;10.186;2022-08-03T06:38:49;2.50;;;2.30;;
44438;SDS011;30145;48.874;10.186;2022-08-03T06:41:16;2.07;;;1.87;;
44438;SDS011;30145;48.874;10.186;2022-08-03T06:43:43;3.80;;;2.40;;
44438;SDS011;30145;48.874;10.186;2022-08-03T06:46:10;4.33;;;2.23;;
44438;SDS011;30145;48.874;10.186;2022-08-03T06:48:37;3.50;;;2.23;;
44438;SDS011;30145;48.874;10.186;2022-08-03T06:51:04;5.07;;;2.23;;
44438;SDS011;30145;48.874;10.186;2022-08-03T06:53:35;4.33;;;1.87;;
44438;SDS011;30145;48.874;10.186;2022-08-03T06:56:05;2.83;;;2.27;;
44438;SDS011;30145;48.874;10.186;2022-08-03T06:58:33;2.13;;;1.90;;
44438;SDS011;30145;48.874;10.186;2022-08-03T07:01:00;2.07;;;1.87;;
44438;SDS011;30145;48.874;10.186;2022-08-03T07:03:27;3.33;;;1.60;;
44438;SDS011;30145;48.874;10.186;2022-08-03T07:05:54;1.63;;;1.53;;
44438;SDS011;30145;48.874;10.186;2022-08-03T07:08:21;2.47;;;1.57;;
44438;SDS011;30145;48.874;10.186;2022-08-03T07:10:49;4.07;;;2.03;;
44438;SDS011;30145;48.874;10.186;2022-08-03T07:13:16;2.57;;;1.70;;
44438;SDS011;30145;48.874;10.186;2022-08-03T07:15:43;2.40;;;2.20;;
44438;SDS011;30145;48.874;10.186;2022-08-03T07:18:11;2.03;;;1.50;;
44438;SDS011;30145;48.874;10.186;2022-08-03T07:20:38;1.90;;;1.57;;
44438;SDS011;30145;48.874;10.186;2022-08-03T07:23:06;2.10;;;1.60;;
44438;SDS011;30145;48.874;10.186;2022-08-03T07:25:33;2.23;;;1.33;;
44438;SDS011;30145;48.874;10.186;2022-08-03T07:28:00;1.80;;;1.40;;
44438;SDS011;30145;48.874;10.186;2022-08-03T07:30:28;1.43;;;1.33;;
44438;SDS011;30145;48.874;10.186;2022-08-03T07:32:55;2.07;;;1.47;;
44438;SDS011;30145;48.874;10.186;2022-08-03T07:35:22;2.60;;;1.43;;
44438;SDS011;30145;48.874;10.186;2022-08-03T07:37:49;1.73;;;1.60;;
44438;SDS011;30145;48.874;10.186;2022-08-03T07:40:16;2.60;;;1.57;;
44438;SDS011;30145;48.874;10.186;2022-08-03T07:42:43;1.23;;;1.10;;
44438;SDS011;30145;48.874;10.186;2022-08-03T07:45:11;2.03;;;1.37;;
44438;SDS011;30145;48.874;10.186;2022-08-03T07:47:38;2.33;;;1.10;;
44438;SDS011;30145;48.874;10.186;2022-08-03T07:50:06;2.60;;;1.10;;
44438;SDS011;30145;48.874;10.186;2022-08-03T07:52:33;3.53;;;1.40;;
44438;SDS011;30145;48.874;10.186;2022-08-03T07:55:22;1.43;;;1.10;;
44438;SDS011;30145;48.874;10.186;2022-08-03T08:00:29;2.38;;;1.33;;
44438;SDS011;30145;48.874;10.186;2022-08-03T08:02:56;3.38;;;1.23;;
44438;SDS011;30145;48.874;10.186;2022-08-03T08:05:24;3.47;;;2.57;;
44438;SDS011;30145;48.874;10.186;2022-08-03T08:07:51;2.17;;;1.53;;
44438;SDS011;30145;48.874;10.186;2022-08-03T08:10:18;2.65;;;1.35;;
44438;SDS011;30145;48.874;10.186;2022-08-03T08:12:45;1.40;;;1.30;;
44438;SDS011;30145;48.874;10.186;2022-08-03T08:15:13;2.70;;;1.10;;
44438;SDS011;30145;48.874;10.186;2022-08-03T08:17:41;1.30;;;1.20;;
44438;SDS011;30145;48.874;10.186;2022-08-03T08:20:16;1.50;;;1.30;;
44438;SDS011;30145;48.874;10.186;2022-08-03T08:22:44;2.60;;;1.33;;
44438;SDS011;30145;48.874;10.186;2022-08-03T08:25:11;1.38;;;1.27;;
44438;SDS011;30145;48.874;10.186;2022-08-03T08:30:09;2.60;;;1.33;;
44438;SDS011;30145;48.874;10.186;2022-08-03T08:32:37;1.50;;;1.23;;
44438;SDS011;30145;48.874;10.186;2022-08-03T08:35:05;1.70;;;1.33;;
44438;SDS011;30145;48.874;10.186;2022-08-03T08:37:33;1.20;;;1.10;;
44438;SDS011;30145;48.874;10.186;2022-08-03T08:40:00;1.30;;;1.05;;
44438;SDS011;30145;48.874;10.186;2022-08-03T08:42:27;1.33;;;1.20;;
44438;SDS011;30145;48.874;10.186;2022-08-03T08:44:54;1.73;;;1.30;;
44438;SDS011;30145;48.874;10.186;2022-08-03T08:47:23;1.58;;;1.00;;
44438;SDS011;30145;48.874;10.186;2022-08-03T08:49:51;1.00;;;1.00;;
44438;SDS011;30145;48.874;10.186;2022-08-03T08:52:34;1.20;;;1.10;;
44438;SDS011;30145;48.874;10.186;2022-08-03T08:55:03;2.08;;;1.17;;
44438;SDS011;30145;48.874;10.186;2022-08-03T08:57:36;3.92;;;1.45;;
44438;SDS011;30145;48.874;10.186;2022-08-03T09:00:09;1.65;;;1.13;;
44438;SDS011;30145;48.874;10.186;2022-08-03T09:02:40;2.05;;;0.95;;
44438;SDS011;30145;48.874;10.186;2022-08-03T09:05:12;1.83;;;1.38;;
44438;SDS011;30145;48.874;10.186;2022-08-03T09:07:40;1.73;;;1.02;;
44438;SDS011;30145;48.874;10.186;2022-08-03T09:10:09;1.70;;;1.23;;
44438;SDS011;30145;48.874;10.186;2022-08-03T09:15:22;1.30;;;1.20;;
44438;SDS011;30145;48.874;10.186;2022-08-03T09:17:54;2.40;;;1.40;;
44438;SDS011;30145;48.874;10.186;2022-08-03T09:20:22;1.73;;;1.20;;
44438;SDS011;30145;48.874;10.186;2022-08-03T09:25:31;4.40;;;1.20;;
44438;SDS011;30145;48.874;10.186;2022-08-03T09:28:06;1.20;;;1.10;;
44438;SDS011;30145;48.874;10.186;2022-08-03T09:30:38;2.00;;;1.17;;
44438;SDS011;30145;48.874;10.186;2022-08-03T09:33:07;2.95;;;1.30;;
44438;SDS011;30145;48.874;10.186;2022-08-03T09:35:39;1.55;;;1.17;;
44438;SDS011;30145;48.874;10.186;2022-08-03T09:38:19;2.25;;;1.00;;
44438;SDS011;30145;48.874;10.186;2022-08-03T09:40:54;1.20;;;1.10;;
44438;SDS011;30145;48.874;10.186;2022-08-03T09:43:25;1.45;;;1.23;;
44438;SDS011;30145;48.874;10.186;2022-08-03T09:46:00;2.40;;;1.38;;
44438;SDS011;30145;48.874;10.186;2022-08-03T09:48:31;0.90;;;0.90;;
44438;SDS011;30145;48.874;10.186;2022-08-03T09:51:00;1.17;;;1.00;;
44438;SDS011;30145;48.874;10.186;2022-08-03T09:53:29;1.42;;;1.10;;
44438;SDS011;30145;48.874;10.186;2022-08-03T09:56:00;1.33;;;1.10;;
44438;SDS011;30145;48.874;10.186;2022-08-03T09:58:29;1.92;;;1.02;;
44438;SDS011;30145;48.874;10.186;2022-08-03T10:01:04;1.35;;;1.17;;
44438;SDS011;30145;48.874;10.186;2022-08-03T10:03:32;2.03;;;1.00;;
44438;SDS011;30145;48.874;10.186;2022-08-03T10:06:17;1.60;;;1.10;;
44438;SDS011;30145;48.874;10.186;2022-08-03T10:08:45;1.38;;;1.27;;
44438;SDS011;30145;48.874;10.186;2022-08-03T10:11:12;1.25;;;1.15;;
44438;SDS011;30145;48.874;10.186;2022-08-03T10:13:56;2.05;;;1.02;;
44438;SDS011;30145;48.874;10.186;2022-08-03T10:16:23;1.15;;;1.02;;
44438;SDS011;30145;48.874;10.186;2022-08-03T10:18:51;1.42;;;1.33;;
44438;SDS011;30145;48.874;10.186;2022-08-03T10:21:18;1.35;;;0.90;;
44438;SDS011;30145;48.874;10.186;2022-08-03T10:23:45;1.23;;;1.00;;
44438;SDS011;30145;48.874;10.186;2022-08-03T10:26:14;1.20;;;1.10;;
44438;SDS011;30145;48.874;10.186;2022-08-03T10:28:46;1.35;;;1.15;;
44438;SDS011;30145;48.874;10.186;2022-08-03T10:31:15;3.15;;;1.10;;
44438;SDS011;30145;48.874;10.186;2022-08-03T10:33:46;1.50;;;0.90;;
44438;SDS011;30145;48.874;10.186;2022-08-03T10:36:17;2.20;;;1.10;;
44438;SDS011;30145;48.874;10.186;2022-08-03T10:38:46;1.20;;;1.10;;
44438;SDS011;30145;48.874;10.186;2022-08-03T10:41:22;2.25;;;1.13;;
44438;SDS011;30145;48.874;10.186;2022-08-03T10:46:29;1.00;;;0.88;;
44438;SDS011;30145;48.874;10.186;2022-08-03T10:48:57;1.20;;;1.10;;
44438;SDS011;30145;48.874;10.186;2022-08-03T10:51:24;1.20;;;1.10;;
44438;SDS011;30145;48.874;10.186;2022-08-03T10:53:57;1.35;;;1.10;;
44438;SDS011;30145;48.874;10.186;2022-08-03T11:02:12;1.02;;;0.93;;
44438;SDS011;30145;48.874;10.186;2022-08-03T11:04:40;3.47;;;1.17;;
44438;SDS011;30145;48.874;10.186;2022-08-03T11:09:52;2.80;;;1.00;;
44438;SDS011;30145;48.874;10.186;2022-08-03T11:12:27;2.70;;;1.00;;
44438;SDS011;30145;48.874;10.186;2022-08-03T11:15:02;1.35;;;0.90;;
44438;SDS011;30145;48.874;10.186;2022-08-03T11:17:31;1.35;;;1.05;;
44438;SDS011;30145;48.874;10.186;2022-08-03T11:19:59;1.90;;;1.20;;
44438;SDS011;30145;48.874;10.186;2022-08-03T11:22:46;1.10;;;1.00;;
44438;SDS011;30145;48.874;10.186;2022-08-03T11:25:13;1.73;;;1.25;;
44438;SDS011;30145;48.874;10.186;2022-08-03T11:27:42;1.45;;;0.88;;
44438;SDS011;30145;48.874;10.186;2022-08-03T11:35:08;2.17;;;0.82;;
44438;SDS011;30145;48.874;10.186;2022-08-03T11:45:57;3.67;;;1.10;;
44438;SDS011;30145;48.874;10.186;2022-08-03T11:51:06;0.93;;;0.80;;
44438;SDS011;30145;48.874;10.186;2022-08-03T11:53:44;2.55;;;1.10;;
44438;SDS011;30145;48.874;10.186;2022-08-03T11:56:13;1.13;;;1.02;;
44438;SDS011;30145;48.874;10.186;2022-08-03T11:58:51;1.70;;;1.23;;
44438;SDS011;30145;48.874;10.186;2022-08-03T12:01:20;1.25;;;0.90;;
44438;SDS011;30145;48.874;10.186;2022-08-03T12:03:49;1.75;;;1.00;;
44438;SDS011;30145;48.874;10.186;2022-08-03T12:06:17;1.15;;;0.95;;
44438;SDS011;30145;48.874;10.186;2022-08-03T12:08:45;2.05;;;1.20;;
44438;SDS011;30145;48.874;10.186;2022-08-03T12:11:13;1.58;;;1.00;;
44438;SDS011;30145;48.874;10.186;2022-08-03T12:13:44;1.00;;;0.90;;
44438;SDS011;30145;48.874;10.186;2022-08-03T12:16:17;1.60;;;0.98;;
44438;SDS011;30145;48.874;10.186;2022-08-03T12:18:57;1.17;;;0.98;;
44438;SDS011;30145;48.874;10.186;2022-08-03T12:21:27;2.00;;;1.08;;
44438;SDS011;30145;48.874;10.186;2022-08-03T12:23:59;1.40;;;0.85;;
44438;SDS011;30145;48.874;10.186;2022-08-03T12:26:28;1.35;;;1.23;;
44438;SDS011;30145;48.874;10.186;2022-08-03T12:28:57;2.55;;;1.00;;
44438;SDS011;30145;48.874;10.186;2022-08-03T12:31:24;2.55;;;1.05;;
44438;SDS011;30145;48.874;10.186;2022-08-03T12:36:23;1.80;;;0.98;;
44438;SDS011;30145;48.874;10.186;2022-08-03T12:38:55;5.60;;;1.30;;
44438;SDS011;30145;48.874;10.186;2022-08-03T12:41:27;1.67;;;0.95;;
44438;SDS011;30145;48.874;10.186;2022-08-03T12:44:02;1.95;;;0.88;;
44438;SDS011;30145;48.874;10.186;2022-08-03T12:46:35;1.77;;;0.90;;
44438;SDS011;30145;48.874;10.186;2022-08-03T12:49:10;1.73;;;1.20;;
44438;SDS011;30145;48.874;10.186;2022-08-03T12:54:17;2.50;;;0.90;;
44438;SDS011;30145;48.874;10.186;2022-08-03T12:57:04;1.42;;;0.80;;
44438;SDS011;30145;48.874;10.186;2022-08-03T12:59:37;2.45;;;1.17;;
44438;SDS011;30145;48.874;10.186;2022-08-03T13:02:18;1.38;;;1.08;;
44438;SDS011;30145;48.874;10.186;2022-08-03T13:04:50;2.28;;;1.00;;
44438;SDS011;30145;48.874;10.186;2022-08-03T13:07:18;1.33;;;0.90;;
44438;SDS011;30145;48.874;10.186;2022-08-03T13:09:54;0.95;;;0.80;;
44438;SDS011;30145;48.874;10.186;2022-08-03T13:12:23;0.70;;;0.70;;
44438;SDS011;30145;48.874;10.186;2022-08-03T13:14:51;1.00;;;0.90;;
44438;SDS011;30145;48.874;10.186;2022-08-03T13:17:21;0.70;;;0.60;;
44438;SDS011;30145;48.874;10.186;2022-08-03T13:19:49;0.70;;;0.70;;
44438;SDS011;30145;48.874;10.186;2022-08-03T13:22:24;1.90;;;0.98;;
44438;SDS011;30145;48.874;10.186;2022-08-03T13:24:56;1.98;;;0.90;;
44438;SDS011;30145;48.874;10.186;2022-08-03T13:27:23;1.25;;;0.98;;
44438;SDS011;30145;48.874;10.186;2022-08-03T13:29:50;0.80;;;0.80;;
44438;SDS011;30145;48.874;10.186;2022-08-03T13:32:19;3.35;;;1.08;;
44438;SDS011;30145;48.874;10.186;2022-08-03T13:34:46;0.90;;;0.88;;
44438;SDS011;30145;48.874;10.186;2022-08-03T13:37:13;1.95;;;0.80;;
44438;SDS011;30145;48.874;10.186;2022-08-03T13:39:40;1.45;;;0.95;;
44438;SDS011;30145;48.874;10.186;2022-08-03T13:42:08;2.00;;;1.08;;
44438;SDS011;30145;48.874;10.186;2022-08-03T13:44:35;2.60;;;0.98;;
44438;SDS011;30145;48.874;10.186;2022-08-03T13:47:02;2.08;;;1.02;;
44438;SDS011;30145;48.874;10.186;2022-08-03T13:49:30;0.80;;;0.70;;
44438;SDS011;30145;48.874;10.186;2022-08-03T13:51:58;1.70;;;0.85;;
44438;SDS011;30145;48.874;10.186;2022-08-03T13:54:26;2.15;;;0.90;;
44438;SDS011;30145;48.874;10.186;2022-08-03T13:56:53;1.17;;;1.05;;
44438;SDS011;30145;48.874;10.186;2022-08-03T13:59:23;0.93;;;0.80;;
44438;SDS011;30145;48.874;10.186;2022-08-03T14:01:51;1.08;;;0.80;;
44438;SDS011;30145;48.874;10.186;2022-08-03T14:04:21;0.90;;;0.90;;
44438;SDS011;30145;48.874;10.186;2022-08-03T14:06:49;4.10;;;1.17;;
44438;SDS011;30145;48.874;10.186;2022-08-03T14:09:16;2.38;;;0.90;;
44438;SDS011;30145;48.874;10.186;2022-08-03T14:11:43;3.92;;;1.00;;
44438;SDS011;30145;48.874;10.186;2022-08-03T14:14:11;1.20;;;0.80;;
44438;SDS011;30145;48.874;10.186;2022-08-03T14:16:38;0.93;;;0.77;;
44438;SDS011;30145;48.874;10.186;2022-08-03T14:19:05;1.48;;;1.05;;
44438;SDS011;30145;48.874;10.186;2022-08-03T14:21:33;3.85;;;1.02;;
44438;SDS011;30145;48.874;10.186;2022-08-03T14:24:00;1.92;;;1.10;;
44438;SDS011;30145;48.874;10.186;2022-08-03T14:26:28;1.35;;;0.80;;
44438;SDS011;30145;48.874;10.186;2022-08-03T14:28:56;1.83;;;0.90;;
44438;SDS011;30145;48.874;10.186;2022-08-03T14:31:23;1.00;;;0.90;;
44438;SDS011;30145;48.874;10.186;2022-08-03T14:33:50;1.48;;;0.90;;
44438;SDS011;30145;48.874;10.186;2022-08-03T14:36:17;1.00;;;0.80;;
44438;SDS011;30145;48.874;10.186;2022-08-03T14:38:44;1.10;;;0.88;;
44438;SDS011;30145;48.874;10.186;2022-08-03T14:41:11;1.55;;;1.05;;
44438;SDS011;30145;48.874;10.186;2022-08-03T14:43:39;3.22;;;0.95;;
44438;SDS011;30145;48.874;10.186;2022-08-03T14:46:05;1.30;;;1.02;;
44438;SDS011;30145;48.874;10.186;2022-08-03T14:48:33;3.10;;;0.98;;
44438;SDS011;30145;48.874;10.186;2022-08-03T14:51:00;5.03;;;1.10;;
44438;SDS011;30145;48.874;10.186;2022-08-03T14:53:27;1.23;;;1.02;;
44438;SDS011;30145;48.874;10.186;2022-08-03T14:55:55;0.90;;;0.80;;
44438;SDS011;30145;48.874;10.186;2022-08-03T14:58:23;1.75;;;1.00;;
44438;SDS011;30145;48.874;10.186;2022-08-03T15:00:53;1.00;;;0.90;;
44438;SDS011;30145;48.874;10.186;2022-08-03T15:03:21;1.33;;;0.90;;
44438;SDS011;30145;48.874;10.186;2022-08-03T15:05:54;1.00;;;0.80;;
44438;SDS011;30145;48.874;10.186;2022-08-03T15:08:22;1.10;;;0.82;;
44438;SDS011;30145;48.874;10.186;2022-08-03T15:10:50;1.30;;;0.80;;
44438;SDS011;30145;48.874;10.186;2022-08-03T15:13:17;1.75;;;1.08;;
44438;SDS011;30145;48.874;10.186;2022-08-03T15:15:45;2.08;;;1.10;;
44438;SDS011;30145;48.874;10.186;2022-08-03T15:18:13;2.72;;;0.85;;
44438;SDS011;30145;48.874;10.186;2022-08-03T15:20:40;2.55;;;1.00;;
44438;SDS011;30145;48.874;10.186;2022-08-03T15:23:10;0.95;;;0.80;;
44438;SDS011;30145;48.874;10.186;2022-08-03T15:25:37;1.95;;;1.30;;
44438;SDS011;30145;48.874;10.186;2022-08-03T15:28:07;0.98;;;0.95;;
44438;SDS011;30145;48.874;10.186;2022-08-03T15:30:34;2.38;;;1.00;;
44438;SDS011;30145;48.874;10.186;2022-08-03T15:33:03;1.23;;;0.90;;
44438;SDS011;30145;48.874;10.186;2022-08-03T15:35:30;2.03;;;1.02;;